Time;durP1;ratioP1;P1;durP2;ratioP2;P2;SDS_P1;SDS_P2;PMS_P1;PMS_P2;Temp;Humidity;BMP_temperature;BMP_pressure;BME280_temperature;BME280_humidity;BME280_pressure;Samples;Min_cycle;Max_cycle;Signal;HPM_P1;HPM_P2
2022/12/16 00:02:06;;;;;;;3.87;3.53;;;-0.70;93.20;-1.90;94579.00;;;;5054906;28;20192;-62
2022/12/16 00:04:34;;;;;;;3.70;3.40;;;-0.70;92.50;-1.90;94585.00;;;;5054768;28;20188;-63
2022/12/16 00:07:01;;;;;;;3.57;3.33;;;-0.80;92.20;-2.00;94573.00;;;;5054698;28;20180;-62
2022/12/16 00:09:28;;;;;;;7.57;3.13;;;-0.80;92.20;-2.10;94565.00;;;;5054464;28;20710;-62
2022/12/16 00:11:55;;;;;;;3.60;3.30;;;-0.90;92.70;-2.00;94581.00;;;;5054760;28;20187;-63
2022/12/16 00:14:22;;;;;;;3.10;2.83;;;-0.90;93.40;-2.00;94595.00;;;;5054820;28;20188;-63
2022/12/16 00:16:49;;;;;;;4.87;3.77;;;-0.90;93.10;-2.00;94596.00;;;;5054998;28;20184;-62
2022/12/16 00:19:16;;;;;;;6.40;3.03;;;-0.80;93.10;-2.00;94593.00;;;;5054647;28;20241;-61
2022/12/16 00:21:45;;;;;;;3.70;3.40;;;-0.80;93.00;-1.90;94589.00;;;;5054890;28;20218;-60
2022/12/16 00:24:12;;;;;;;3.33;3.13;;;-0.80;92.80;-1.90;94589.00;;;;5054326;28;20184;-61
2022/12/16 00:26:39;;;;;;;5.47;3.53;;;-0.80;92.20;-2.00;94587.00;;;;5054278;28;20184;-60
2022/12/16 00:29:06;;;;;;;4.70;3.63;;;-0.80;91.90;-2.00;94593.00;;;;5054095;28;20228;-60
2022/12/16 00:31:33;;;;;;;4.07;3.67;;;-0.90;92.30;-2.00;94592.00;;;;5054603;28;20191;-60
2022/12/16 00:34:00;;;;;;;6.00;5.43;;;-0.80;92.10;-2.10;94598.00;;;;5054466;28;20557;-61
2022/12/16 00:36:27;;;;;;;5.37;4.87;;;-0.90;91.80;-2.10;94593.00;;;;5054832;28;20658;-61
2022/12/16 00:38:56;;;;;;;4.20;3.80;;;-0.90;92.20;-2.10;94609.00;;;;5052729;28;20223;-61
2022/12/16 00:41:23;;;;;;;3.40;3.17;;;-0.90;92.30;-2.10;94597.00;;;;5054715;28;20199;-61
2022/12/16 00:43:50;;;;;;;4.40;3.73;;;-1.00;92.30;-2.10;94601.00;;;;5054710;28;20196;-61
2022/12/16 00:46:17;;;;;;;3.00;2.80;;;-1.00;92.60;-2.20;94603.00;;;;5053913;28;20186;-61
2022/12/16 00:48:44;;;;;;;4.67;4.23;;;-1.00;92.60;-2.20;94593.00;;;;5053997;28;20306;-61
2022/12/16 00:51:11;;;;;;;3.33;3.13;;;-1.00;92.70;-2.20;94601.00;;;;5054157;28;20176;-60
2022/12/16 00:53:38;;;;;;;2.17;2.07;;;-1.00;93.00;-2.20;94604.00;;;;5054029;28;20269;-61
2022/12/16 00:56:09;;;;;;;2.87;2.63;;;-1.00;92.80;-2.20;94601.00;;;;5053754;28;20651;-61
2022/12/16 00:58:37;;;;;;;2.83;2.63;;;-1.00;92.60;-2.10;94589.00;;;;5053819;28;20219;-61
2022/12/16 01:01:07;;;;;;;3.07;2.83;;;-1.00;92.30;-2.20;94591.00;;;;5053756;28;20188;-60
2022/12/16 01:03:35;;;;;;;5.87;4.10;;;-1.00;92.30;-2.10;94598.00;;;;5055096;28;20184;-61
2022/12/16 01:06:07;;;;;;;6.30;5.13;;;-1.00;92.60;-2.10;94604.00;;;;5053812;28;20199;-61
2022/12/16 01:08:34;;;;;;;8.60;6.37;;;-1.00;93.00;-2.20;94602.00;;;;5053448;28;20230;-61
2022/12/16 01:11:01;;;;;;;7.73;3.90;;;-1.00;92.70;-2.30;94613.00;;;;5053407;28;20203;-60
2022/12/16 01:13:30;;;;;;;17.60;4.87;;;-1.10;93.10;-2.30;94613.00;;;;5053640;28;20584;-61
2022/12/16 01:16:01;;;;;;;4.23;3.60;;;-1.10;93.40;-2.30;94612.00;;;;5053418;28;20189;-61
2022/12/16 01:18:28;;;;;;;3.53;3.23;;;-1.10;94.20;-2.20;94611.00;;;;5052723;28;20212;-60
2022/12/16 01:21:02;;;;;;;2.03;1.93;;;-1.10;94.60;-2.20;94617.00;;;;5053850;28;20203;-64
2022/12/16 01:23:29;;;;;;;7.67;4.13;;;-1.10;93.90;-2.20;94621.00;;;;5053927;28;20191;-61
2022/12/16 01:26:00;;;;;;;4.20;3.70;;;-1.10;93.40;-2.30;94625.00;;;;5053266;28;20196;-61
2022/12/16 01:28:27;;;;;;;3.90;3.47;;;-1.10;93.70;-2.30;94629.00;;;;5053431;28;20208;-61
2022/12/16 01:31:01;;;;;;;3.10;2.90;;;-1.10;93.70;-2.20;94625.00;;;;5053390;28;20231;-60
2022/12/16 01:33:29;;;;;;;5.10;4.63;;;-1.10;93.90;-2.10;94618.00;;;;5053998;28;20184;-61
2022/12/16 01:36:06;;;;;;;5.63;3.97;;;-1.00;93.90;-2.20;94634.00;;;;5053127;28;20271;-61
2022/12/16 01:38:34;;;;;;;6.00;3.80;;;-1.10;92.80;-2.20;94641.00;;;;5053050;28;20298;-61
2022/12/16 01:41:01;;;;;;;2.97;2.77;;;-1.10;93.30;-2.20;94641.00;;;;5053090;28;20251;-60
2022/12/16 01:43:32;;;;;;;5.40;4.90;;;-1.10;93.60;-2.20;94642.00;;;;5053810;28;20248;-61
2022/12/16 01:46:07;;;;;;;2.53;2.37;;;-1.10;93.70;-2.20;94650.00;;;;5053283;28;20619;-61
2022/12/16 01:48:43;;;;;;;4.23;3.83;;;-1.10;93.50;-2.20;94622.00;;;;5053222;28;20215;-60
2022/12/16 01:51:18;;;;;;;4.73;4.03;;;-1.10;93.20;-2.10;94644.00;;;;5053048;28;20179;-61
2022/12/16 01:53:47;;;;;;;5.77;3.63;;;-1.00;93.50;-2.20;94645.00;;;;5053498;28;20187;-60
2022/12/16 01:56:20;;;;;;;5.30;3.30;;;-1.00;93.10;-2.20;94653.00;;;;5052968;28;20199;-61
2022/12/16 01:58:47;;;;;;;6.23;3.93;;;-1.00;93.20;-2.10;94652.00;;;;5053149;28;20231;-61
2022/12/16 02:01:16;;;;;;;5.23;3.67;;;-1.00;92.40;-2.20;94659.00;;;;5052935;28;20196;-61
2022/12/16 02:03:44;;;;;;;3.43;2.97;;;-1.00;92.20;-2.20;94655.00;;;;5053284;28;20721;-61
2022/12/16 02:06:11;;;;;;;5.73;4.27;;;-1.10;92.50;-2.20;94645.00;;;;5053103;28;20528;-62
2022/12/16 02:08:38;;;;;;;3.73;3.40;;;-1.00;92.50;-2.20;94655.00;;;;5052751;28;20717;-62
2022/12/16 02:11:28;;;;;;;8.13;3.97;;;-1.00;92.70;-2.20;94658.00;;;;5052889;28;20224;-62
2022/12/16 02:14:21;;;;;;;3.70;3.20;;;-1.10;92.60;-2.30;94659.00;;;;5053573;28;20183;-61
2022/12/16 02:17:00;;;;;;;3.53;2.77;;;-1.10;92.60;-2.20;94666.00;;;;5052816;28;20178;-62
2022/12/16 02:20:06;;;;;;;4.97;4.60;;;-1.10;93.30;-2.20;94668.00;;;;5052991;28;20233;-62
2022/12/16 02:22:51;;;;;;;3.83;3.53;;;-1.00;93.40;-2.30;94650.00;;;;5055822;28;20501;-62
2022/12/16 02:26:03;;;;;;;5.30;3.83;;;-1.10;93.60;-2.30;94655.00;;;;5056944;28;20189;-62
2022/12/16 02:29:07;;;;;;;2.67;2.53;;;-1.10;93.70;-2.30;94659.00;;;;5038151;28;20219;-62
2022/12/16 02:31:49;;;;;;;4.00;3.30;;;-1.10;93.90;-2.30;94656.00;;;;5056465;28;20250;-62
2022/12/16 02:34:28;;;;;;;4.00;2.80;;;-1.10;93.40;-2.30;94652.00;;;;5056760;28;20196;-62
2022/12/16 02:37:12;;;;;;;2.97;2.77;;;-1.10;93.20;-2.30;94661.00;;;;5056728;28;20175;-62
2022/12/16 02:39:44;;;;;;;3.87;3.50;;;-1.10;93.10;-2.40;94655.00;;;;5056530;28;20223;-62
2022/12/16 02:42:19;;;;;;;4.27;3.03;;;-1.20;92.60;-2.40;94675.00;;;;5056362;28;20643;-62
2022/12/16 02:44:57;;;;;;;3.70;3.20;;;-1.20;93.20;-2.40;94669.00;;;;5056352;28;20187;-62
2022/12/16 02:47:25;;;;;;;10.97;5.70;;;-1.20;93.60;-2.50;94680.00;;;;5056275;28;20176;-62
2022/12/16 02:49:55;;;;;;;2.90;2.70;;;-1.30;94.20;-2.40;94676.00;;;;5056116;28;20250;-61
2022/12/16 02:52:25;;;;;;;4.27;3.57;;;-1.20;94.60;-2.40;94673.00;;;;5054858;28;20196;-62
2022/12/16 02:54:59;;;;;;;2.53;2.43;;;-1.30;94.80;-2.40;94676.00;;;;5056316;28;20177;-62
2022/12/16 02:58:02;;;;;;;6.20;3.97;;;-1.20;95.20;-2.40;94684.00;;;;5056381;28;20176;-62
2022/12/16 03:00:41;;;;;;;4.53;4.07;;;-1.30;94.80;-2.50;94693.00;;;;5055912;28;20207;-62
2022/12/16 03:03:19;;;;;;;3.87;3.57;;;-1.30;95.10;-2.50;94704.00;;;;5056219;28;20229;-62
2022/12/16 03:05:51;;;;;;;3.10;2.80;;;-1.30;95.00;-2.50;94708.00;;;;5056097;28;20180;-62
2022/12/16 03:08:24;;;;;;;3.33;3.07;;;-1.30;94.90;-2.50;94706.00;;;;5056037;28;20187;-62
2022/12/16 03:10:57;;;;;;;14.13;3.20;;;-1.30;94.80;-2.50;94707.00;;;;5056220;28;20204;-62
2022/12/16 03:13:27;;;;;;;2.43;2.30;;;-1.40;94.60;-2.50;94708.00;;;;5056084;28;20177;-62
2022/12/16 03:15:58;;;;;;;4.43;4.03;;;-1.40;94.70;-2.50;94707.00;;;;5038019;28;20187;-62
2022/12/16 03:18:28;;;;;;;2.63;2.43;;;-1.40;94.50;-2.50;94710.00;;;;5055588;28;20682;-62
2022/12/16 03:21:00;;;;;;;3.23;2.93;;;-1.30;94.10;-2.50;94717.00;;;;5055893;28;20213;-61
2022/12/16 03:23:36;;;;;;;4.67;4.17;;;-1.30;94.00;-2.60;94712.00;;;;5055856;28;20184;-62
2022/12/16 03:26:10;;;;;;;3.17;2.97;;;-1.40;93.40;-2.50;94710.00;;;;5055830;28;20176;-62
2022/12/16 03:28:45;;;;;;;4.43;3.30;;;-1.40;93.70;-2.60;94710.00;;;;5055621;28;20211;-62
2022/12/16 03:31:26;;;;;;;4.83;3.50;;;-1.40;93.70;-2.60;94714.00;;;;5055333;28;20214;-61
2022/12/16 03:34:05;;;;;;;2.20;2.10;;;-1.40;93.80;-2.60;94720.00;;;;5054092;28;20190;-62
2022/12/16 03:36:37;;;;;;;4.77;4.30;;;-1.40;93.30;-2.60;94725.00;;;;5055585;28;20176;-62
2022/12/16 03:39:07;;;;;;;3.60;3.40;;;-1.40;94.50;-2.60;94723.00;;;;5055569;28;20212;-62
2022/12/16 03:41:35;;;;;;;3.30;2.83;;;-1.50;94.00;-2.60;94724.00;;;;5055148;28;20210;-61
2022/12/16 03:44:03;;;;;;;3.67;3.37;;;-1.50;94.50;-2.60;94719.00;;;;5055433;28;20191;-62
2022/12/16 03:46:30;;;;;;;3.03;2.80;;;-1.50;94.50;-2.70;94734.00;;;;5055334;28;20192;-62
2022/12/16 03:48:58;;;;;;;4.13;2.50;;;-1.60;95.00;-2.70;94731.00;;;;5055048;28;20208;-62
2022/12/16 03:51:25;;;;;;;2.07;1.97;;;-1.50;94.80;-2.70;94736.00;;;;5054995;28;20287;-62
2022/12/16 03:53:52;;;;;;;3.77;2.50;;;-1.60;94.90;-2.70;94723.00;;;;5054950;28;20754;-61
2022/12/16 03:56:19;;;;;;;3.20;2.63;;;-1.50;95.10;-2.70;94729.00;;;;5054968;28;20186;-60
2022/12/16 03:58:46;;;;;;;3.17;2.87;;;-1.60;95.20;-2.60;94729.00;;;;5054917;28;20629;-61
2022/12/16 04:01:14;;;;;;;3.57;3.20;;;-1.50;95.60;-2.70;94738.00;;;;5054844;28;20195;-61
2022/12/16 04:03:41;;;;;;;4.27;3.07;;;-1.50;95.00;-2.80;94736.00;;;;5055176;28;20275;-61
2022/12/16 04:06:10;;;;;;;2.67;2.47;;;-1.60;94.30;-2.80;94731.00;;;;5054782;28;20673;-61
2022/12/16 04:08:37;;;;;;;3.90;3.23;;;-1.60;95.40;-2.80;94746.00;;;;5054999;28;20211;-61
2022/12/16 04:25:10;;;;;;;5.27;3.47;;;-1.70;96.30;-2.80;94755.00;;;;5054405;28;20179;-60
2022/12/16 04:27:37;;;;;;;4.37;4.07;;;-1.60;96.10;-2.80;94748.00;;;;5054588;28;20177;-60
2022/12/16 04:30:21;;;;;;;3.33;2.60;;;-1.60;96.00;-2.70;94751.00;;;;5054370;28;20582;-61
